Time;durP1;ratioP1;P1;durP2;ratioP2;P2;SDS_P1;SDS_P2;PMS_P1;PMS_P2;Temp;Humidity;BMP_temperature;BMP_pressure;BME280_temperature;BME280_humidity;BME280_pressure;Samples;Min_cycle;Max_cycle;Signal;HPM_P1;HPM_P2
2023/08/11 00:02:23;;;;;;;11.88;3.95;;;;;;;;;;6122720;23;20021;-44
2023/08/11 00:04:51;;;;;;;13.10;3.70;;;;;;;;;;6123546;23;20519;-44
2023/08/11 00:07:19;;;;;;;16.90;3.90;;;;;;;;;;6131742;23;20048;-43
2023/08/11 00:09:47;;;;;;;22.93;4.10;;;;;;;;;;6122686;23;20036;-46
2023/08/11 00:12:14;;;;;;;16.25;3.40;;;;;;;;;;6130111;23;20086;-44
2023/08/11 00:14:42;;;;;;;14.55;3.80;;;;;;;;;;6125460;23;20017;-45
2023/08/11 00:17:10;;;;;;;17.88;4.55;;;;;;;;;;6127974;23;20028;-45
2023/08/11 00:19:40;;;;;;;14.23;4.22;;;;;;;;;;6126493;23;20029;-44
2023/08/11 00:22:09;;;;;;;13.93;3.77;;;;;;;;;;6129264;23;20044;-43
2023/08/11 00:24:37;;;;;;;15.80;3.67;;;;;;;;;;6120624;23;20025;-42
2023/08/11 00:27:05;;;;;;;17.13;3.88;;;;;;;;;;6125405;23;20024;-42
2023/08/11 00:29:33;;;;;;;12.18;3.55;;;;;;;;;;6115958;23;20017;-43
2023/08/11 00:32:01;;;;;;;19.77;3.28;;;;;;;;;;6123995;23;20013;-43
2023/08/11 00:34:28;;;;;;;13.17;3.47;;;;;;;;;;6116661;23;20460;-42
2023/08/11 00:36:57;;;;;;;13.95;3.22;;;;;;;;;;6126379;23;20024;-42
2023/08/11 00:39:26;;;;;;;15.88;4.60;;;;;;;;;;6113732;23;20017;-42
2023/08/11 00:41:53;;;;;;;17.00;3.70;;;;;;;;;;6129629;23;20017;-41
2023/08/11 00:44:21;;;;;;;14.07;3.50;;;;;;;;;;6121952;23;20021;-42
2023/08/11 00:46:49;;;;;;;19.77;3.73;;;;;;;;;;6128329;23;20025;-43
2023/08/11 00:49:17;;;;;;;14.98;3.33;;;;;;;;;;6121836;23;20447;-42
2023/08/11 00:51:45;;;;;;;15.27;3.70;;;;;;;;;;6116263;23;20032;-43
2023/08/11 00:54:16;;;;;;;16.23;3.70;;;;;;;;;;6125979;23;20114;-43
2023/08/11 00:56:45;;;;;;;12.95;3.35;;;;;;;;;;6123534;23;20021;-43
2023/08/11 00:59:13;;;;;;;19.93;4.27;;;;;;;;;;6124613;23;20017;-42
2023/08/11 01:01:41;;;;;;;15.18;3.22;;;;;;;;;;6118517;23;20394;-43
2023/08/11 01:04:09;;;;;;;12.90;3.40;;;;;;;;;;6128860;23;20021;-42
2023/08/11 01:06:40;;;;;;;15.95;3.75;;;;;;;;;;6120933;23;20096;-42
2023/08/11 01:09:13;;;;;;;17.08;4.10;;;;;;;;;;6126366;23;20018;-43
2023/08/11 01:11:52;;;;;;;15.17;3.40;;;;;;;;;;6111755;23;20018;-43
2023/08/11 01:14:23;;;;;;;14.13;3.70;;;;;;;;;;6101365;23;20423;-42
2023/08/11 01:16:52;;;;;;;15.07;3.95;;;;;;;;;;6125206;23;20014;-45
2023/08/11 01:19:25;;;;;;;11.00;3.60;;;;;;;;;;6134700;23;20018;-44
2023/08/11 01:21:54;;;;;;;14.57;4.28;;;;;;;;;;6128304;23;20077;-42
2023/08/11 01:24:28;;;;;;;11.67;3.60;;;;;;;;;;6124278;23;20483;-43
2023/08/11 01:26:57;;;;;;;10.57;3.65;;;;;;;;;;6130515;23;20064;-43
2023/08/11 01:29:26;;;;;;;11.68;3.45;;;;;;;;;;6119922;23;20021;-43
2023/08/11 01:31:53;;;;;;;11.50;3.75;;;;;;;;;;6151559;23;20014;-42
2023/08/11 01:34:21;;;;;;;12.10;3.20;;;;;;;;;;6114420;23;20026;-43
2023/08/11 01:36:51;;;;;;;11.37;3.23;;;;;;;;;;6124455;23;20040;-43
2023/08/11 01:39:20;;;;;;;12.65;3.60;;;;;;;;;;6121060;23;20552;-42
2023/08/11 01:41:49;;;;;;;9.02;2.75;;;;;;;;;;6120608;23;20028;-43
2023/08/11 01:44:17;;;;;;;10.20;2.85;;;;;;;;;;6118504;23;20021;-43
2023/08/11 01:46:46;;;;;;;9.50;3.15;;;;;;;;;;6127651;23;20020;-43
2023/08/11 01:49:15;;;;;;;9.07;3.23;;;;;;;;;;6127402;23;20014;-42
2023/08/11 01:51:43;;;;;;;10.32;3.55;;;;;;;;;;6131483;23;20014;-43
2023/08/11 01:54:11;;;;;;;9.90;3.28;;;;;;;;;;6127349;23;20105;-43
2023/08/11 01:56:40;;;;;;;12.60;3.63;;;;;;;;;;6128715;23;20022;-42
2023/08/11 01:59:13;;;;;;;11.25;3.78;;;;;;;;;;6135699;23;20343;-42
2023/08/11 02:01:40;;;;;;;10.10;4.17;;;;;;;;;;6119873;23;20022;-42
2023/08/11 02:04:09;;;;;;;12.15;3.75;;;;;;;;;;6131560;23;20030;-42
2023/08/11 02:06:37;;;;;;;14.45;4.43;;;;;;;;;;6124852;23;20442;-43
2023/08/11 02:09:08;;;;;;;13.85;4.18;;;;;;;;;;6133144;23;20018;-42
2023/08/11 02:11:37;;;;;;;10.27;3.33;;;;;;;;;;6084045;23;20086;-48
2023/08/11 02:14:05;;;;;;;9.60;3.10;;;;;;;;;;6130891;23;20019;-42
2023/08/11 02:16:34;;;;;;;6.97;3.05;;;;;;;;;;6119188;23;20157;-44
2023/08/11 02:19:01;;;;;;;10.68;3.45;;;;;;;;;;6123080;23;20037;-41
2023/08/11 02:21:29;;;;;;;10.88;3.38;;;;;;;;;;6133714;23;20096;-42
2023/08/11 02:23:57;;;;;;;7.70;3.25;;;;;;;;;;6130048;23;20044;-43
2023/08/11 02:26:25;;;;;;;9.80;3.43;;;;;;;;;;6129837;23;20021;-43
2023/08/11 02:28:52;;;;;;;9.77;3.50;;;;;;;;;;6128501;23;20518;-42
2023/08/11 02:31:21;;;;;;;11.45;3.72;;;;;;;;;;6125537;23;20361;-43
2023/08/11 02:33:53;;;;;;;11.38;3.63;;;;;;;;;;6129756;23;20033;-43
2023/08/11 02:36:20;;;;;;;9.57;3.92;;;;;;;;;;6136194;23;20018;-41
2023/08/11 02:38:48;;;;;;;9.33;3.80;;;;;;;;;;6112043;23;20021;-41
2023/08/11 02:41:16;;;;;;;9.57;3.50;;;;;;;;;;6139131;23;20014;-41
2023/08/11 02:43:43;;;;;;;8.18;3.60;;;;;;;;;;6116945;23;20169;-42
2023/08/11 02:46:11;;;;;;;8.43;3.50;;;;;;;;;;6125269;23;20026;-43
2023/08/11 02:48:39;;;;;;;10.00;3.95;;;;;;;;;;6130524;23;20064;-43
2023/08/11 02:51:08;;;;;;;8.07;3.77;;;;;;;;;;6123518;23;20467;-43
2023/08/11 02:53:36;;;;;;;7.95;3.28;;;;;;;;;;6132031;23;20021;-42
2023/08/11 02:56:07;;;;;;;10.05;3.95;;;;;;;;;;6133378;23;20021;-42
2023/08/11 02:58:34;;;;;;;9.23;3.78;;;;;;;;;;6123542;23;20021;-42
2023/08/11 03:01:03;;;;;;;7.40;3.40;;;;;;;;;;6132196;23;20021;-42
2023/08/11 03:03:33;;;;;;;7.70;3.57;;;;;;;;;;6153633;23;20360;-44
2023/08/11 03:06:04;;;;;;;8.93;4.15;;;;;;;;;;6126080;23;20028;-42
2023/08/11 03:08:34;;;;;;;8.18;3.05;;;;;;;;;;6134569;23;20468;-42
2023/08/11 03:11:01;;;;;;;7.15;3.20;;;;;;;;;;6120039;23;20104;-43
2023/08/11 03:13:29;;;;;;;8.32;3.20;;;;;;;;;;6134750;23;20761;-42
2023/08/11 03:15:58;;;;;;;6.53;2.97;;;;;;;;;;6129654;23;20021;-43
2023/08/11 03:18:26;;;;;;;5.88;2.72;;;;;;;;;;6128455;23;20022;-43
2023/08/11 03:20:54;;;;;;;6.80;2.30;;;;;;;;;;6128026;23;20246;-42
2023/08/11 03:23:41;;;;;;;7.35;2.78;;;;;;;;;;6129935;23;20018;-42
2023/08/11 03:26:09;;;;;;;7.72;2.83;;;;;;;;;;6131071;23;20021;-43
2023/08/11 03:28:37;;;;;;;8.23;2.23;;;;;;;;;;6120640;23;20018;-42
2023/08/11 03:31:07;;;;;;;7.55;2.50;;;;;;;;;;6134172;23;20018;-44
2023/08/11 03:33:35;;;;;;;7.72;2.60;;;;;;;;;;6128709;23;20036;-43
2023/08/11 03:36:03;;;;;;;8.35;2.75;;;;;;;;;;6121753;23;20018;-45
2023/08/11 03:38:31;;;;;;;7.10;2.30;;;;;;;;;;6135292;23;20013;-44
2023/08/11 03:41:00;;;;;;;6.13;2.40;;;;;;;;;;6108076;23;20021;-42
2023/08/11 03:43:28;;;;;;;6.35;2.15;;;;;;;;;;6133993;23;20018;-42
2023/08/11 03:45:55;;;;;;;7.20;2.10;;;;;;;;;;6132184;23;20040;-42
2023/08/11 03:48:23;;;;;;;7.57;2.10;;;;;;;;;;6133478;23;20028;-43
2023/08/11 03:50:51;;;;;;;5.63;1.98;;;;;;;;;;6130131;23;20041;-42
2023/08/11 03:53:19;;;;;;;5.07;1.80;;;;;;;;;;6131439;23;20021;-42
2023/08/11 03:55:46;;;;;;;7.50;1.83;;;;;;;;;;6106709;23;20022;-44
2023/08/11 03:58:15;;;;;;;9.10;1.52;;;;;;;;;;6135392;23;20018;-42
2023/08/11 04:00:43;;;;;;;6.20;1.83;;;;;;;;;;6128352;23;20467;-42
2023/08/11 04:03:11;;;;;;;5.70;2.03;;;;;;;;;;6129464;23;20342;-42
2023/08/11 04:05:39;;;;;;;6.20;1.70;;;;;;;;;;6127324;23;20095;-42
2023/08/11 04:08:06;;;;;;;4.72;1.58;;;;;;;;;;6155505;23;20348;-42
2023/08/11 04:10:34;;;;;;;4.72;1.40;;;;;;;;;;6120558;23;20024;-44
2023/08/11 04:13:03;;;;;;;6.97;1.83;;;;;;;;;;6124907;23;20022;-42
2023/08/11 04:15:32;;;;;;;5.03;1.48;;;;;;;;;;6133880;23;20022;-42
2023/08/11 04:18:00;;;;;;;4.27;1.17;;;;;;;;;;6122911;23;20031;-42
2023/08/11 04:20:28;;;;;;;4.53;1.45;;;;;;;;;;6127558;23;20037;-43
2023/08/11 04:22:56;;;;;;;6.32;1.88;;;;;;;;;;6132268;23;20021;-45
2023/08/11 04:25:25;;;;;;;4.90;1.90;;;;;;;;;;6132013;23;20018;-44
2023/08/11 04:27:55;;;;;;;5.30;1.70;;;;;;;;;;6124403;23;20044;-43
2023/08/11 04:30:23;;;;;;;5.37;1.90;;;;;;;;;;6134668;23;20475;-43
2023/08/11 04:32:52;;;;;;;5.18;1.60;;;;;;;;;;6127922;23;20084;-44
2023/08/11 04:35:21;;;;;;;8.02;1.80;;;;;;;;;;6130741;23;20018;-43
2023/08/11 04:37:49;;;;;;;5.13;1.60;;;;;;;;;;6132152;23;20392;-42
2023/08/11 04:40:17;;;;;;;5.00;1.30;;;;;;;;;;6123935;23;20060;-43
2023/08/11 04:42:45;;;;;;;5.73;1.60;;;;;;;;;;6129925;23;20017;-43
2023/08/11 04:45:14;;;;;;;4.93;1.35;;;;;;;;;;6120685;23;20030;-43
2023/08/11 04:47:42;;;;;;;5.93;1.70;;;;;;;;;;6130605;23;20017;-43
2023/08/11 04:50:12;;;;;;;6.97;1.70;;;;;;;;;;6131502;23;20453;-43
2023/08/11 04:52:40;;;;;;;9.27;1.70;;;;;;;;;;6121745;23;20216;-44
2023/08/11 04:55:12;;;;;;;6.57;1.73;;;;;;;;;;6125786;23;20084;-43
2023/08/11 04:57:40;;;;;;;7.40;1.63;;;;;;;;;;6122306;23;20092;-44
2023/08/11 05:00:13;;;;;;;5.57;1.35;;;;;;;;;;6126791;23;20075;-44
2023/08/11 05:02:42;;;;;;;6.55;1.50;;;;;;;;;;6117302;23;20049;-45
2023/08/11 05:05:12;;;;;;;6.35;1.45;;;;;;;;;;6123223;23;20100;-44
2023/08/11 05:07:40;;;;;;;8.93;1.93;;;;;;;;;;6115273;23;20096;-43
2023/08/11 05:10:08;;;;;;;5.55;1.55;;;;;;;;;;6130137;23;20028;-46
2023/08/11 05:12:36;;;;;;;9.82;1.58;;;;;;;;;;6122548;23;20428;-47
2023/08/11 05:15:04;;;;;;;6.20;1.70;;;;;;;;;;6123225;23;20021;-45
2023/08/11 05:17:32;;;;;;;8.50;1.90;;;;;;;;;;6120143;23;20675;-44
2023/08/11 05:19:59;;;;;;;6.47;2.07;;;;;;;;;;6122654;23;20620;-42
2023/08/11 05:22:29;;;;;;;7.63;1.45;;;;;;;;;;6131176;23;20021;-45
2023/08/11 05:24:57;;;;;;;7.05;1.77;;;;;;;;;;6124111;23;20273;-46
2023/08/11 05:27:25;;;;;;;6.75;1.70;;;;;;;;;;6128238;23;20056;-43
2023/08/11 05:29:52;;;;;;;7.55;1.65;;;;;;;;;;6119473;23;20051;-42
2023/08/11 05:32:20;;;;;;;7.83;2.40;;;;;;;;;;6120419;23;20014;-42
2023/08/11 05:34:48;;;;;;;9.88;2.00;;;;;;;;;;6123209;23;20021;-46
2023/08/11 05:37:15;;;;;;;8.18;1.73;;;;;;;;;;6124365;23;20259;-44
2023/08/11 05:39:44;;;;;;;11.27;1.98;;;;;;;;;;6122570;23;20013;-43
2023/08/11 05:42:12;;;;;;;7.38;1.88;;;;;;;;;;6124579;23;20017;-43
2023/08/11 05:44:40;;;;;;;7.00;2.07;;;;;;;;;;6121108;23;20472;-42
2023/08/11 05:47:08;;;;;;;11.55;2.38;;;;;;;;;;6122573;23;20464;-43
2023/08/11 05:49:36;;;;;;;9.73;2.20;;;;;;;;;;6122178;23;20084;-46
2023/08/11 05:52:07;;;;;;;10.57;2.30;;;;;;;;;;6111028;23;20017;-43
2023/08/11 05:54:35;;;;;;;11.50;2.55;;;;;;;;;;6131256;23;20178;-43
2023/08/11 05:57:04;;;;;;;8.83;1.87;;;;;;;;;;6117798;23;20569;-42
2023/08/11 05:59:33;;;;;;;10.75;2.47;;;;;;;;;;6126824;23;20021;-42
2023/08/11 06:02:00;;;;;;;5.40;2.13;;;;;;;;;;6112561;23;20672;-43
2023/08/11 06:04:28;;;;;;;10.43;2.35;;;;;;;;;;6127324;23;20316;-44
2023/08/11 06:06:56;;;;;;;12.32;2.55;;;;;;;;;;6122785;23;20356;-42
2023/08/11 06:09:23;;;;;;;9.87;2.60;;;;;;;;;;6121349;23;20607;-42
2023/08/11 06:11:51;;;;;;;10.20;3.13;;;;;;;;;;6125735;23;20017;-42
2023/08/11 06:14:20;;;;;;;9.68;2.38;;;;;;;;;;6122841;23;20021;-42
2023/08/11 06:16:48;;;;;;;8.18;1.80;;;;;;;;;;6122921;23;20024;-42
2023/08/11 06:19:17;;;;;;;8.07;2.08;;;;;;;;;;6121686;23;20021;-43
2023/08/11 06:21:45;;;;;;;6.13;2.10;;;;;;;;;;6126716;23;20029;-42
2023/08/11 06:24:13;;;;;;;11.05;2.40;;;;;;;;;;6120937;23;20018;-43
2023/08/11 06:26:41;;;;;;;8.57;2.28;;;;;;;;;;6122049;23;20018;-42
2023/08/11 06:29:08;;;;;;;7.70;2.47;;;;;;;;;;6120456;23;20100;-44
2023/08/11 06:31:38;;;;;;;11.98;2.60;;;;;;;;;;6126020;23;20029;-45
2023/08/11 06:34:09;;;;;;;7.30;2.10;;;;;;;;;;6127092;23;20045;-42
2023/08/11 06:36:37;;;;;;;8.60;2.53;;;;;;;;;;6125218;23;20093;-42
2023/08/11 06:39:06;;;;;;;13.75;2.30;;;;;;;;;;6125997;23;20036;-43
2023/08/11 06:41:33;;;;;;;8.57;2.20;;;;;;;;;;6125786;23;20452;-42
2023/08/11 06:44:01;;;;;;;6.40;2.33;;;;;;;;;;6132321;23;20102;-42
2023/08/11 06:46:29;;;;;;;9.97;2.83;;;;;;;;;;6116544;23;20029;-42
2023/08/11 06:48:58;;;;;;;10.02;2.88;;;;;;;;;;6126958;23;20022;-43
2023/08/11 06:51:26;;;;;;;8.00;2.20;;;;;;;;;;6128401;23;20058;-42
2023/08/11 06:53:53;;;;;;;7.53;2.20;;;;;;;;;;6118590;23;20029;-44
2023/08/11 06:56:21;;;;;;;10.38;2.35;;;;;;;;;;6124901;23;20013;-43
2023/08/11 06:58:48;;;;;;;8.67;2.40;;;;;;;;;;6147607;23;20128;-42
2023/08/11 07:01:18;;;;;;;10.15;2.10;;;;;;;;;;6129584;23;20205;-50
2023/08/11 07:03:47;;;;;;;7.40;2.28;;;;;;;;;;6128011;23;20491;-42
2023/08/11 07:06:16;;;;;;;9.23;2.55;;;;;;;;;;6124419;23;20049;-43
2023/08/11 07:08:43;;;;;;;10.88;2.55;;;;;;;;;;6127207;23;20017;-44
2023/08/11 07:11:11;;;;;;;9.27;2.67;;;;;;;;;;6124483;23;20029;-42
2023/08/11 07:13:40;;;;;;;7.55;1.92;;;;;;;;;;6128270;23;20104;-43
2023/08/11 07:16:07;;;;;;;8.85;2.20;;;;;;;;;;6118495;23;20096;-42
2023/08/11 07:18:35;;;;;;;8.25;2.15;;;;;;;;;;6128434;23;20080;-44
2023/08/11 07:21:03;;;;;;;10.68;2.00;;;;;;;;;;6128687;23;20014;-45
2023/08/11 07:23:33;;;;;;;9.20;2.20;;;;;;;;;;6127143;23;20018;-44
2023/08/11 07:26:01;;;;;;;9.98;2.00;;;;;;;;;;6115159;23;20013;-42
2023/08/11 07:28:29;;;;;;;9.55;1.65;;;;;;;;;;6130089;23;20076;-43
2023/08/11 07:30:56;;;;;;;7.97;2.03;;;;;;;;;;6119783;23;20021;-44
2023/08/11 07:33:24;;;;;;;9.45;2.20;;;;;;;;;;6126359;23;20022;-45
2023/08/11 07:35:52;;;;;;;10.73;1.80;;;;;;;;;;6119339;23;20477;-42
2023/08/11 07:38:20;;;;;;;8.73;2.15;;;;;;;;;;6133338;23;20018;-42
2023/08/11 07:40:49;;;;;;;9.00;2.00;;;;;;;;;;6117612;23;20024;-42
2023/08/11 07:43:21;;;;;;;11.18;2.13;;;;;;;;;;6131668;23;20024;-43
2023/08/11 07:45:48;;;;;;;11.95;2.22;;;;;;;;;;6114359;23;20032;-43
2023/08/11 07:48:18;;;;;;;9.23;2.20;;;;;;;;;;6129847;23;20486;-45
2023/08/11 07:50:45;;;;;;;7.03;2.10;;;;;;;;;;6123104;23;20330;-43
2023/08/11 07:53:13;;;;;;;7.60;2.13;;;;;;;;;;6130478;23;20025;-44
2023/08/11 07:55:41;;;;;;;8.13;2.55;;;;;;;;;;6120396;23;20017;-45
2023/08/11 07:58:10;;;;;;;9.48;2.13;;;;;;;;;;6127204;23;20024;-44
2023/08/11 08:00:39;;;;;;;9.13;2.37;;;;;;;;;;6116249;23;20025;-43
2023/08/11 08:03:06;;;;;;;12.55;2.05;;;;;;;;;;6130367;23;20021;-44
2023/08/11 08:05:34;;;;;;;10.52;1.83;;;;;;;;;;6117211;23;20428;-43
2023/08/11 08:08:02;;;;;;;7.82;2.50;;;;;;;;;;6127179;23;20025;-50
2023/08/11 08:10:30;;;;;;;11.48;3.08;;;;;;;;;;6126118;23;20022;-47
2023/08/11 08:12:58;;;;;;;10.30;2.23;;;;;;;;;;6114342;23;20032;-47
2023/08/11 08:15:28;;;;;;;11.20;2.38;;;;;;;;;;6128011;23;20096;-44
2023/08/11 08:17:56;;;;;;;9.05;2.63;;;;;;;;;;6115871;23;20064;-44
2023/08/11 08:20:26;;;;;;;7.95;2.65;;;;;;;;;;6123652;23;20060;-44
2023/08/11 08:22:54;;;;;;;9.32;2.88;;;;;;;;;;6124853;23;20069;-43
2023/08/11 08:25:22;;;;;;;12.63;2.73;;;;;;;;;;6121182;23;20467;-43
2023/08/11 08:27:49;;;;;;;9.80;2.25;;;;;;;;;;6118811;23;20088;-43
2023/08/11 08:30:34;;;;;;;9.07;2.63;;;;;;;;;;6063505;23;20411;-44
2023/08/11 08:33:02;;;;;;;8.50;2.70;;;;;;;;;;6103624;23;20140;-44
2023/08/11 08:35:29;;;;;;;6.78;2.17;;;;;;;;;;6107760;23;20074;-43
2023/08/11 08:37:57;;;;;;;7.13;2.03;;;;;;;;;;6117880;23;20017;-43
2023/08/11 08:40:25;;;;;;;8.52;1.92;;;;;;;;;;6126691;23;20096;-44
2023/08/11 08:42:53;;;;;;;7.10;1.75;;;;;;;;;;6118740;23;20018;-44
2023/08/11 08:45:22;;;;;;;8.07;1.70;;;;;;;;;;6122910;23;20489;-46
2023/08/11 08:47:52;;;;;;;7.13;1.83;;;;;;;;;;6119736;23;20537;-47
2023/08/11 08:50:22;;;;;;;6.07;2.23;;;;;;;;;;6125713;23;20028;-43
2023/08/11 08:52:51;;;;;;;8.55;2.38;;;;;;;;;;6126063;23;20017;-43
2023/08/11 08:55:20;;;;;;;7.93;2.42;;;;;;;;;;6113041;23;20448;-43
2023/08/11 08:57:47;;;;;;;9.15;2.75;;;;;;;;;;6129874;23;20013;-46
2023/08/11 09:00:17;;;;;;;8.15;2.17;;;;;;;;;;6121750;23;20021;-48
2023/08/11 09:02:45;;;;;;;8.00;2.20;;;;;;;;;;6124394;23;20024;-44
2023/08/11 09:05:15;;;;;;;7.97;2.33;;;;;;;;;;6128551;23;20622;-43
2023/08/11 09:07:43;;;;;;;10.77;2.50;;;;;;;;;;6114609;23;20635;-43
2023/08/11 09:10:10;;;;;;;8.32;2.47;;;;;;;;;;6128972;23;20022;-47
2023/08/11 09:12:38;;;;;;;7.82;2.25;;;;;;;;;;6120731;23;20013;-45
2023/08/11 09:15:06;;;;;;;9.13;2.27;;;;;;;;;;6128467;23;20444;-45
2023/08/11 09:17:36;;;;;;;7.00;2.03;;;;;;;;;;6121890;23;20595;-46
2023/08/11 09:20:06;;;;;;;8.68;1.73;;;;;;;;;;6131065;23;20460;-46
2023/08/11 09:22:38;;;;;;;7.28;1.80;;;;;;;;;;6121523;23;20022;-46
2023/08/11 09:25:24;;;;;;;7.70;2.00;;;;;;;;;;6118769;23;20052;-43
2023/08/11 09:27:52;;;;;;;5.23;1.70;;;;;;;;;;6129818;23;20072;-43
2023/08/11 09:30:19;;;;;;;6.82;1.95;;;;;;;;;;6117700;23;20222;-46
2023/08/11 09:32:48;;;;;;;10.02;2.15;;;;;;;;;;6129560;23;20014;-44
2023/08/11 09:35:23;;;;;;;8.25;2.00;;;;;;;;;;6121818;23;20017;-43
2023/08/11 09:37:53;;;;;;;6.95;1.83;;;;;;;;;;6126229;23;20085;-43
2023/08/11 09:40:21;;;;;;;9.33;2.00;;;;;;;;;;6121549;23;20018;-44
2023/08/11 09:42:49;;;;;;;9.23;1.70;;;;;;;;;;6116648;23;20056;-46
2023/08/11 09:45:18;;;;;;;5.15;1.55;;;;;;;;;;6127481;23;20018;-48
2023/08/11 09:47:47;;;;;;;7.72;1.85;;;;;;;;;;6119279;23;20018;-44
2023/08/11 09:50:15;;;;;;;6.25;1.92;;;;;;;;;;6135538;23;20097;-43
2023/08/11 09:52:45;;;;;;;5.47;1.60;;;;;;;;;;6122232;23;20528;-44
2023/08/11 09:55:15;;;;;;;7.05;1.67;;;;;;;;;;6125847;23;20037;-45
2023/08/11 09:57:44;;;;;;;6.18;1.90;;;;;;;;;;6125542;23;20029;-43
2023/08/11 10:00:12;;;;;;;7.47;1.85;;;;;;;;;;6124349;23;20017;-42
2023/08/11 10:02:41;;;;;;;5.45;1.30;;;;;;;;;;6122194;23;20293;-44
2023/08/11 10:05:10;;;;;;;7.20;1.67;;;;;;;;;;6134051;23;20036;-43
2023/08/11 10:07:40;;;;;;;7.05;1.63;;;;;;;;;;6116656;23;20097;-43
2023/08/11 10:10:11;;;;;;;6.63;1.70;;;;;;;;;;6133735;23;20018;-45
2023/08/11 10:12:43;;;;;;;7.68;1.80;;;;;;;;;;6115933;23;20014;-44
2023/08/11 10:15:12;;;;;;;6.43;1.77;;;;;;;;;;6128818;23;20021;-44
2023/08/11 10:17:40;;;;;;;11.13;1.93;;;;;;;;;;6125738;23;20021;-45
2023/08/11 10:20:09;;;;;;;5.75;1.30;;;;;;;;;;6125559;23;20341;-45
2023/08/11 10:22:37;;;;;;;7.32;1.65;;;;;;;;;;6128268;23;20017;-44
2023/08/11 10:25:06;;;;;;;6.05;1.50;;;;;;;;;;6121766;23;20028;-44
2023/08/11 10:27:35;;;;;;;7.40;1.73;;;;;;;;;;6125652;23;20013;-44
2023/08/11 10:30:05;;;;;;;7.77;1.50;;;;;;;;;;6125952;23;20029;-43
2023/08/11 10:32:33;;;;;;;5.38;1.00;;;;;;;;;;6090646;23;20425;-43
2023/08/11 10:35:01;;;;;;;5.38;1.42;;;;;;;;;;6115464;23;20028;-44
2023/08/11 10:37:29;;;;;;;7.95;1.67;;;;;;;;;;6100590;23;20071;-44
2023/08/11 10:40:07;;;;;;;6.68;1.35;;;;;;;;;;6109380;23;20674;-43
2023/08/11 10:42:53;;;;;;;10.57;1.93;;;;;;;;;;6113891;23;20412;-43
2023/08/11 10:45:23;;;;;;;7.13;1.67;;;;;;;;;;6110052;23;20036;-44
2023/08/11 10:47:55;;;;;;;6.53;2.15;;;;;;;;;;6110497;23;20021;-43
2023/08/11 10:50:23;;;;;;;6.03;1.50;;;;;;;;;;6101659;23;20018;-45
2023/08/11 10:52:56;;;;;;;7.40;2.00;;;;;;;;;;6115639;23;20024;-43
2023/08/11 10:55:24;;;;;;;5.90;1.50;;;;;;;;;;6107144;23;20031;-43
2023/08/11 10:58:06;;;;;;;6.15;1.90;;;;;;;;;;6107164;23;20037;-43
2023/08/11 11:00:35;;;;;;;6.28;1.73;;;;;;;;;;6098730;23;20017;-44
2023/08/11 11:03:04;;;;;;;9.15;1.90;;;;;;;;;;6110484;23;20512;-45
2023/08/11 11:05:32;;;;;;;7.35;1.60;;;;;;;;;;6107847;23;20044;-45
2023/08/11 11:08:00;;;;;;;9.30;1.73;;;;;;;;;;6111719;23;20028;-46
2023/08/11 11:10:28;;;;;;;7.90;1.67;;;;;;;;;;6103489;23;20017;-47
2023/08/11 11:13:14;;;;;;;10.50;1.70;;;;;;;;;;6106141;23;20073;-45
2023/08/11 11:15:44;;;;;;;6.25;1.73;;;;;;;;;;6106670;23;20450;-43
2023/08/11 11:18:12;;;;;;;9.45;2.22;;;;;;;;;;6111555;23;20082;-44
2023/08/11 11:20:40;;;;;;;6.73;1.70;;;;;;;;;;6102299;23;20025;-43
2023/08/11 11:23:07;;;;;;;8.05;1.38;;;;;;;;;;6107411;23;20024;-43
2023/08/11 11:25:35;;;;;;;7.50;1.30;;;;;;;;;;6116397;23;20021;-45
2023/08/11 11:28:04;;;;;;;5.25;1.40;;;;;;;;;;6101377;23;20028;-43
2023/08/11 11:30:32;;;;;;;7.45;1.52;;;;;;;;;;6101258;23;20356;-44
2023/08/11 11:33:01;;;;;;;9.33;1.83;;;;;;;;;;6103504;23;20515;-46
2023/08/11 11:35:32;;;;;;;8.50;1.38;;;;;;;;;;6110370;23;20031;-43
2023/08/11 11:38:00;;;;;;;6.90;1.55;;;;;;;;;;6106192;23;20029;-43
2023/08/11 11:40:29;;;;;;;5.63;1.27;;;;;;;;;;6099064;23;20017;-47
2023/08/11 11:42:57;;;;;;;6.97;1.60;;;;;;;;;;6105992;23;20028;-46
2023/08/11 11:45:26;;;;;;;8.60;1.80;;;;;;;;;;6132284;23;20518;-45
2023/08/11 11:47:54;;;;;;;8.25;1.95;;;;;;;;;;6102627;23;20017;-43
2023/08/11 11:50:27;;;;;;;7.28;1.60;;;;;;;;;;6099609;23;20463;-44
2023/08/11 11:52:55;;;;;;;6.07;1.63;;;;;;;;;;6112453;23;20018;-43
2023/08/11 11:55:22;;;;;;;5.70;1.50;;;;;;;;;;6103048;23;20068;-44
2023/08/11 11:57:51;;;;;;;8.10;1.40;;;;;;;;;;6114363;23;20021;-47
2023/08/11 12:00:20;;;;;;;9.07;1.83;;;;;;;;;;6101853;23;20433;-44
2023/08/11 12:02:48;;;;;;;7.43;1.77;;;;;;;;;;6107643;23;20673;-43
2023/08/11 12:05:15;;;;;;;5.93;1.63;;;;;;;;;;6109382;23;20503;-44
2023/08/11 12:07:45;;;;;;;6.85;1.73;;;;;;;;;;6112241;23;20060;-44
2023/08/11 12:10:14;;;;;;;9.53;2.53;;;;;;;;;;6094046;23;20436;-44
2023/08/11 12:12:42;;;;;;;7.20;1.60;;;;;;;;;;6116265;23;20068;-46
2023/08/11 12:15:10;;;;;;;6.32;1.83;;;;;;;;;;6104941;23;20474;-45
2023/08/11 12:17:38;;;;;;;7.07;1.70;;;;;;;;;;6099488;23;20041;-43
2023/08/11 12:20:08;;;;;;;7.78;2.05;;;;;;;;;;6097857;23;21000;-44
2023/08/11 12:22:36;;;;;;;7.73;1.63;;;;;;;;;;6115675;23;20116;-45
2023/08/11 12:25:05;;;;;;;9.07;1.40;;;;;;;;;;6098915;23;20017;-44
2023/08/11 12:27:33;;;;;;;7.75;2.13;;;;;;;;;;6113603;23;20124;-43
2023/08/11 12:30:21;;;;;;;8.40;2.60;;;;;;;;;;6102318;23;20517;-44
2023/08/11 12:32:49;;;;;;;7.15;1.77;;;;;;;;;;6103238;23;20021;-45
2023/08/11 12:35:17;;;;;;;5.17;1.40;;;;;;;;;;6108130;23;20021;-45
2023/08/11 12:37:46;;;;;;;7.25;1.90;;;;;;;;;;6105276;23;20021;-45
2023/08/11 12:40:18;;;;;;;6.60;1.67;;;;;;;;;;6103127;23;20028;-44
2023/08/11 12:42:46;;;;;;;10.88;1.95;;;;;;;;;;6106581;23;20375;-44
2023/08/11 12:45:14;;;;;;;5.72;1.88;;;;;;;;;;6108097;23;20496;-43
2023/08/11 12:47:59;;;;;;;6.70;2.00;;;;;;;;;;6099805;23;20061;-45
2023/08/11 12:50:28;;;;;;;6.85;1.80;;;;;;;;;;6099660;23;20029;-43
2023/08/11 12:52:56;;;;;;;7.60;2.25;;;;;;;;;;6109507;23;20025;-45
2023/08/11 12:55:25;;;;;;;7.53;2.10;;;;;;;;;;6103100;23;20252;-45
2023/08/11 12:57:53;;;;;;;7.07;1.63;;;;;;;;;;6115058;23;20017;-52
2023/08/11 13:00:21;;;;;;;6.77;1.90;;;;;;;;;;6087482;23;20174;-45
2023/08/11 13:02:48;;;;;;;9.20;2.15;;;;;;;;;;6110464;23;20021;-49
2023/08/11 13:05:16;;;;;;;8.60;2.40;;;;;;;;;;6103412;23;20096;-46
2023/08/11 13:07:44;;;;;;;7.78;1.92;;;;;;;;;;6111246;23;20201;-43
2023/08/11 13:10:12;;;;;;;8.25;1.90;;;;;;;;;;6096860;23;20028;-44
2023/08/11 13:12:41;;;;;;;8.03;1.67;;;;;;;;;;6110513;23;20017;-45
2023/08/11 13:15:09;;;;;;;8.10;2.08;;;;;;;;;;6101152;23;20013;-45
2023/08/11 13:17:37;;;;;;;8.90;1.60;;;;;;;;;;6108894;23;20025;-43
2023/08/11 13:20:09;;;;;;;6.30;1.50;;;;;;;;;;6085377;23;20018;-44
2023/08/11 13:22:37;;;;;;;7.68;2.10;;;;;;;;;;6103160;23;20025;-47
2023/08/11 13:25:06;;;;;;;10.23;2.07;;;;;;;;;;6108181;23;20017;-43
2023/08/11 13:27:34;;;;;;;8.15;1.88;;;;;;;;;;6103359;23;20025;-44
2023/08/11 13:30:03;;;;;;;7.88;2.20;;;;;;;;;;6109519;23;20029;-45
2023/08/11 13:32:32;;;;;;;11.57;2.05;;;;;;;;;;6124927;23;20026;-43
2023/08/11 13:34:59;;;;;;;7.35;1.92;;;;;;;;;;6110724;23;20020;-43
2023/08/11 13:37:27;;;;;;;7.73;2.20;;;;;;;;;;6125726;23;20492;-43
2023/08/11 13:39:56;;;;;;;10.10;2.20;;;;;;;;;;6122331;23;20021;-43
2023/08/11 13:42:24;;;;;;;9.35;2.28;;;;;;;;;;6100860;23;20060;-46
2023/08/11 13:44:52;;;;;;;9.15;2.42;;;;;;;;;;6106648;23;20515;-45
2023/08/11 13:47:21;;;;;;;8.82;2.20;;;;;;;;;;6114170;23;20024;-43
2023/08/11 13:49:49;;;;;;;11.20;2.03;;;;;;;;;;6104802;23;20086;-44
2023/08/11 13:52:17;;;;;;;8.73;2.22;;;;;;;;;;6098835;23;20076;-44
2023/08/11 13:54:56;;;;;;;9.32;2.28;;;;;;;;;;6108848;23;20056;-45
2023/08/11 13:57:24;;;;;;;10.05;2.30;;;;;;;;;;6102120;23;20023;-44
2023/08/11 13:59:52;;;;;;;11.50;2.70;;;;;;;;;;6109151;23;20035;-43
2023/08/11 14:02:21;;;;;;;8.20;2.10;;;;;;;;;;6098013;23;20044;-44
2023/08/11 14:04:49;;;;;;;8.15;2.65;;;;;;;;;;6106970;23;20018;-45
2023/08/11 14:07:17;;;;;;;10.73;2.58;;;;;;;;;;6110483;23;20408;-43
2023/08/11 14:09:57;;;;;;;7.80;1.83;;;;;;;;;;6111933;23;20456;-47
2023/08/11 14:12:25;;;;;;;11.77;3.05;;;;;;;;;;6098514;23;20044;-43
2023/08/11 14:14:52;;;;;;;6.67;2.63;;;;;;;;;;6110479;23;20025;-43
2023/08/11 14:17:21;;;;;;;9.70;1.90;;;;;;;;;;6096992;23;20099;-45
2023/08/11 14:19:50;;;;;;;7.03;2.75;;;;;;;;;;6110006;23;20470;-43
2023/08/11 14:22:18;;;;;;;9.52;2.67;;;;;;;;;;6112350;23;20177;-43
2023/08/11 14:24:46;;;;;;;7.82;2.35;;;;;;;;;;6105744;23;20504;-43
2023/08/11 14:27:14;;;;;;;10.63;2.27;;;;;;;;;;6105489;23;20070;-43
2023/08/11 14:29:42;;;;;;;8.05;2.00;;;;;;;;;;6106764;23;20469;-45
2023/08/11 14:32:09;;;;;;;7.85;2.13;;;;;;;;;;6099102;23;20041;-45
2023/08/11 14:34:56;;;;;;;8.00;2.40;;;;;;;;;;6112152;23;20028;-47
2023/08/11 14:37:24;;;;;;;11.65;1.95;;;;;;;;;;6109916;23;20021;-44
2023/08/11 14:39:52;;;;;;;10.87;2.00;;;;;;;;;;6087309;23;20021;-43
2023/08/11 14:42:20;;;;;;;8.07;2.15;;;;;;;;;;6099502;23;20022;-42
2023/08/11 14:44:47;;;;;;;8.48;2.47;;;;;;;;;;6111838;23;20027;-44
2023/08/11 14:47:15;;;;;;;8.15;2.10;;;;;;;;;;6109641;23;20018;-43
2023/08/11 14:49:44;;;;;;;8.43;2.70;;;;;;;;;;6106552;23;20021;-44